createdAt,value
2018-08-09T00:00:00.797Z,21.09
2018-08-09T00:00:05.105Z,21.09
2018-08-09T00:00:09.302Z,21.09
2018-08-09T00:00:13.507Z,21.09
2018-08-09T00:00:17.593Z,21.08
2018-08-09T00:00:21.791Z,21.09
2018-08-09T00:00:26.102Z,21.08
2018-08-09T00:00:33.185Z,21.08
2018-08-09T00:00:37.486Z,21.08
2018-08-09T00:00:41.798Z,21.09
2018-08-09T00:00:45.995Z,21.08
2018-08-09T00:00:50.210Z,21.09
2018-08-09T00:00:54.331Z,21.07
2018-08-09T00:00:58.425Z,21.07
2018-08-09T00:01:02.620Z,21.08
2018-08-09T00:01:06.829Z,21.09
2018-08-09T00:01:11.145Z,21.08
2018-08-09T00:01:15.453Z,21.08
2018-08-09T00:01:19.752Z,21.08
2018-08-09T00:01:23.956Z,21.08
2018-08-09T00:01:28.378Z,21.08
2018-08-09T00:01:32.843Z,21.08
2018-08-09T00:01:37.500Z,21.08
2018-08-09T00:01:42.245Z,21.08
2018-08-09T00:01:46.465Z,21.08
2018-08-09T00:01:50.662Z,21.07
2018-08-09T00:01:54.869Z,21.07
2018-08-09T00:01:58.862Z,21.07
2018-08-09T00:02:03.076Z,21.08
2018-08-09T00:02:07.171Z,21.08
2018-08-09T00:02:11.493Z,21.07
2018-08-09T00:02:15.688Z,21.07
2018-08-09T00:02:19.886Z,21.08
2018-08-09T00:02:23.976Z,21.07
2018-08-09T00:02:28.180Z,21.07
2018-08-09T00:02:32.270Z,21.07
2018-08-09T00:02:36.466Z,21.07
2018-08-09T00:02:40.555Z,21.06
2018-08-09T00:02:44.644Z,21.06
2018-08-09T00:02:48.838Z,21.08
2018-08-09T00:02:53.140Z,21.07
2018-08-09T00:02:57.454Z,21.08
2018-08-09T00:03:01.545Z,21.08
2018-08-09T00:03:05.739Z,21.08
2018-08-09T00:03:09.942Z,21.07
2018-08-09T00:03:14.140Z,21.07
2018-08-09T00:03:18.232Z,21.07
2018-08-09T00:03:22.429Z,21.07
2018-08-09T00:03:26.741Z,21.07
2018-08-09T00:03:31.044Z,21.08
2018-08-09T00:03:35.342Z,21.08
2018-08-09T00:03:39.537Z,21.08
2018-08-09T00:03:43.846Z,21.08
2018-08-09T00:03:48.041Z,21.07
2018-08-09T00:03:52.235Z,21.08
2018-08-09T00:03:56.221Z,21.08
2018-08-09T00:04:00.310Z,21.08
2018-08-09T00:04:04.448Z,21.08
2018-08-09T00:04:08.750Z,21.08
2018-08-09T00:04:13.056Z,21.08
2018-08-09T00:04:17.385Z,21.08
2018-08-09T00:04:21.598Z,21.08
2018-08-09T00:04:25.486Z,21.07
2018-08-09T00:04:29.683Z,21.08
2018-08-09T00:04:33.889Z,21.08
2018-08-09T00:04:38.185Z,21.07
2018-08-09T00:04:42.486Z,21.07
2018-08-09T00:04:46.792Z,21.08
2018-08-09T00:04:50.884Z,21.08
2018-08-09T00:04:55.187Z,21.08
2018-08-09T00:04:59.386Z,21.08
2018-08-09T00:05:03.596Z,21.08
2018-08-09T00:05:07.596Z,21.08
2018-08-09T00:05:11.907Z,21.08
2018-08-09T00:05:16.111Z,21.08
2018-08-09T00:05:28.078Z,21.08
2018-08-09T00:05:32.409Z,21.08
2018-08-09T00:05:36.712Z,21.09
2018-08-09T00:05:41.011Z,21.09
2018-08-09T00:05:45.214Z,21.09
2018-08-09T00:05:49.511Z,21.08
2018-08-09T00:05:53.599Z,21.09
2018-08-09T00:05:57.802Z,21.09
2018-08-09T00:06:02.057Z,21.09
2018-08-09T00:06:06.145Z,21.09
2018-08-09T00:06:10.344Z,21.08
2018-08-09T00:06:14.438Z,21.09
2018-08-09T00:06:18.632Z,21.08
2018-08-09T00:06:22.833Z,21.08
2018-08-09T00:06:27.030Z,21.09
2018-08-09T00:06:31.233Z,21.08
2018-08-09T00:06:35.319Z,21.09
2018-08-09T00:06:39.614Z,21.1
2018-08-09T00:06:43.808Z,21.09
2018-08-09T00:06:47.900Z,21.08
2018-08-09T00:06:52.006Z,21.09
2018-08-09T00:06:56.103Z,21.09
2018-08-09T00:07:00.411Z,21.09
2018-08-09T00:07:04.498Z,21.09
2018-08-09T00:07:08.799Z,21.08
2018-08-09T00:07:13.095Z,21.09
2018-08-09T00:07:20.838Z,21.09
2018-08-09T00:07:25.031Z,21.09
2018-08-09T00:07:58.896Z,21.09
2018-08-09T00:08:02.992Z,21.09
2018-08-09T00:08:07.191Z,21.09
2018-08-09T00:08:11.431Z,21.08
2018-08-09T00:08:15.733Z,21.08
2018-08-09T00:08:20.037Z,21.08
2018-08-09T00:08:24.122Z,21.09
2018-08-09T00:08:28.211Z,21.08
2018-08-09T00:08:32.295Z,21.09
2018-08-09T00:08:36.593Z,21.08
2018-08-09T00:08:40.686Z,21.09
2018-08-09T00:08:44.883Z,21.08
2018-08-09T00:08:49.186Z,21.08
2018-08-09T00:08:53.383Z,21.08
2018-08-09T00:08:57.583Z,21.08
2018-08-09T00:09:01.782Z,21.09
2018-08-09T00:09:05.979Z,21.08
2018-08-09T00:09:10.233Z,21.08
2018-08-09T00:09:14.212Z,21.08
2018-08-09T00:09:18.199Z,21.08
2018-08-09T00:09:22.389Z,21.08
2018-08-09T00:09:26.692Z,21.08
2018-08-09T00:09:30.803Z,21.08
2018-08-09T00:09:34.898Z,21.08
2018-08-09T00:09:39.218Z,21.08
2018-08-09T00:09:43.304Z,21.08
2018-08-09T00:09:47.496Z,21.08
2018-08-09T00:09:51.798Z,21.08
2018-08-09T00:09:55.992Z,21.08
2018-08-09T00:10:00.192Z,21.08
2018-08-09T00:10:04.385Z,21.08
2018-08-09T00:10:08.696Z,21.08
2018-08-09T00:10:13.000Z,21.08
2018-08-09T00:10:17.194Z,21.08
2018-08-09T00:10:21.504Z,21.08
2018-08-09T00:10:25.705Z,21.08
2018-08-09T00:10:33.427Z,21.08
2018-08-09T00:10:37.521Z,21.08
2018-08-09T00:10:41.718Z,21.08
2018-08-09T00:10:45.720Z,21.08
2018-08-09T00:10:49.912Z,21.08
2018-08-09T00:10:54.103Z,21.08
2018-08-09T00:10:58.184Z,21.07
2018-08-09T00:11:02.549Z,21.08
2018-08-09T00:11:06.841Z,21.07
2018-08-09T00:11:11.032Z,21.07
2018-08-09T00:11:15.223Z,21.07
2018-08-09T00:11:19.418Z,21.07
2018-08-09T00:11:23.511Z,21.08
2018-08-09T00:11:27.807Z,21.07
2018-08-09T00:11:31.997Z,21.06
2018-08-09T00:11:36.188Z,21.07
2018-08-09T00:11:40.273Z,21.07
2018-08-09T00:11:44.577Z,21.07
2018-08-09T00:11:48.770Z,21.06
2018-08-09T00:11:52.754Z,21.07
2018-08-09T00:11:56.852Z,21.06
2018-08-09T00:12:01.168Z,21.07
2018-08-09T00:12:05.361Z,21.06
2018-08-09T00:12:09.563Z,21.06
2018-08-09T00:12:26.985Z,21.06
2018-08-09T00:12:31.287Z,21.06
2018-08-09T00:12:35.476Z,21.04
2018-08-09T00:12:39.456Z,21.06
2018-08-09T00:12:43.541Z,21.05
2018-08-09T00:12:47.851Z,21.05
2018-08-09T00:12:52.153Z,21.05
2018-08-09T00:12:56.341Z,21.04
2018-08-09T00:13:00.533Z,21.05
2018-08-09T00:13:04.877Z,21.04
2018-08-09T00:13:09.077Z,21.04
2018-08-09T00:13:13.375Z,21.04
2018-08-09T00:13:17.468Z,21.04
2018-08-09T00:13:21.556Z,21.03
2018-08-09T00:13:25.856Z,21.03
2018-08-09T00:13:29.951Z,21.03
2018-08-09T00:13:34.257Z,21.03
2018-08-09T00:13:38.458Z,21.03
2018-08-09T00:13:42.443Z,21.02
2018-08-09T00:13:46.644Z,21.02
2018-08-09T00:13:50.740Z,21.02
2018-08-09T00:13:54.938Z,21.03
2018-08-09T00:13:59.141Z,21.02
2018-08-09T00:14:03.138Z,21
2018-08-09T00:14:07.442Z,21.01
2018-08-09T00:14:11.633Z,21.01
2018-08-09T00:14:15.720Z,21
2018-08-09T00:14:19.699Z,21
2018-08-09T00:14:23.681Z,20.99
2018-08-09T00:14:27.890Z,20.99
2018-08-09T00:14:32.205Z,20.99
2018-08-09T00:14:36.504Z,20.99
2018-08-09T00:14:40.588Z,20.98
2018-08-09T00:14:44.906Z,20.98
2018-08-09T00:14:49.210Z,20.97
2018-08-09T00:14:53.517Z,20.97
2018-08-09T00:14:57.714Z,20.97
2018-08-09T00:15:01.694Z,20.97
2018-08-09T00:15:05.681Z,20.97
2018-08-09T00:15:09.776Z,20.96
2018-08-09T00:15:15.483Z,20.95
2018-08-09T00:15:19.677Z,20.95
2018-08-09T00:15:23.765Z,20.94
2018-08-09T00:15:27.957Z,20.94
2018-08-09T00:15:32.262Z,20.94
2018-08-09T00:15:36.566Z,20.93
2018-08-09T00:15:40.781Z,20.93
2018-08-09T00:15:44.969Z,20.92
2018-08-09T00:15:49.160Z,20.92
2018-08-09T00:15:53.251Z,20.92
2018-08-09T00:15:57.547Z,20.92
2018-08-09T00:16:01.740Z,20.91
2018-08-09T00:16:05.933Z,20.91
2018-08-09T00:16:10.128Z,20.92
2018-08-09T00:16:14.436Z,20.91
2018-08-09T00:16:18.646Z,20.91
2018-08-09T00:16:22.842Z,20.9
2018-08-09T00:16:27.035Z,20.9
2018-08-09T00:16:31.232Z,20.9
2018-08-09T00:16:35.318Z,20.89
2018-08-09T00:16:39.528Z,20.89
2018-08-09T00:16:43.829Z,20.89
2018-08-09T00:16:47.811Z,20.9
2018-08-09T00:16:52.119Z,20.89
2018-08-09T00:16:56.107Z,20.89
2018-08-09T00:17:00.197Z,20.88
2018-08-09T00:17:04.076Z,20.88
2018-08-09T00:17:08.169Z,20.89
2018-08-09T00:17:12.357Z,20.89
2018-08-09T00:17:16.655Z,20.87
2018-08-09T00:17:20.849Z,20.88
2018-08-09T00:17:25.149Z,20.88
2018-08-09T00:17:29.456Z,20.87
2018-08-09T00:17:33.441Z,20.87
2018-08-09T00:17:37.420Z,20.87
2018-08-09T00:17:41.615Z,20.87
2018-08-09T00:17:45.707Z,20.87
2018-08-09T00:17:50.021Z,20.87
2018-08-09T00:17:54.321Z,20.86
2018-08-09T00:17:58.418Z,20.86
2018-08-09T00:18:02.507Z,20.86
2018-08-09T00:18:06.597Z,20.86
2018-08-09T00:18:10.902Z,20.85
2018-08-09T00:18:15.100Z,20.85
2018-08-09T00:18:19.400Z,20.86
2018-08-09T00:18:23.492Z,20.85
2018-08-09T00:18:27.688Z,20.85
2018-08-09T00:18:31.881Z,20.85
2018-08-09T00:18:36.182Z,20.85
2018-08-09T00:18:40.380Z,20.84
2018-08-09T00:18:44.696Z,20.84
2018-08-09T00:18:48.897Z,20.83
2018-08-09T00:18:52.984Z,20.84
2018-08-09T00:18:57.315Z,20.84
2018-08-09T00:19:01.542Z,20.84
2018-08-09T00:19:05.527Z,20.84
2018-08-09T00:19:09.621Z,20.84
2018-08-09T00:19:13.937Z,20.84
2018-08-09T00:19:18.232Z,20.83
2018-08-09T00:19:22.476Z,20.83
2018-08-09T00:19:26.560Z,20.84
2018-08-09T00:19:30.755Z,20.83
2018-08-09T00:19:34.947Z,20.83
2018-08-09T00:19:39.136Z,20.83
2018-08-09T00:19:43.113Z,20.83
2018-08-09T00:19:47.305Z,20.83
2018-08-09T00:19:51.502Z,20.82
2018-08-09T00:19:55.753Z,20.82
2018-08-09T00:20:00.049Z,20.82
2018-08-09T00:20:04.048Z,20.82
2018-08-09T00:20:08.244Z,20.82
2018-08-09T00:20:12.442Z,20.83
2018-08-09T00:20:16.639Z,20.82
2018-08-09T00:20:20.829Z,20.83
2018-08-09T00:20:25.023Z,20.83
2018-08-09T00:20:29.316Z,20.82
2018-08-09T00:20:33.615Z,20.82
2018-08-09T00:20:37.912Z,20.81
2018-08-09T00:20:41.907Z,20.81
2018-08-09T00:20:45.893Z,20.82
2018-08-09T00:20:50.095Z,20.82
2018-08-09T00:20:54.393Z,20.82
2018-08-09T00:20:58.705Z,20.81
2018-08-09T00:21:03.017Z,20.81
2018-08-09T00:21:07.217Z,20.81
2018-08-09T00:21:11.206Z,20.81
2018-08-09T00:21:15.503Z,20.81
2018-08-09T00:21:19.598Z,20.8
2018-08-09T00:21:23.690Z,20.81
2018-08-09T00:21:27.989Z,20.81
2018-08-09T00:21:32.074Z,20.81
2018-08-09T00:21:36.269Z,20.81
2018-08-09T00:21:40.464Z,20.81
2018-08-09T00:21:44.550Z,20.81
2018-08-09T00:21:48.643Z,20.81
2018-08-09T00:21:52.736Z,20.81
2018-08-09T00:21:56.820Z,20.8
2018-08-09T00:22:01.017Z,20.81
2018-08-09T00:22:05.161Z,20.8
2018-08-09T00:22:09.365Z,20.8
2018-08-09T00:22:13.562Z,20.8
2018-08-09T00:22:17.757Z,20.81
2018-08-09T00:22:22.062Z,20.81
2018-08-09T00:22:26.363Z,20.8
2018-08-09T00:22:30.555Z,20.81
2018-08-09T00:22:34.860Z,20.81
2018-08-09T00:22:38.946Z,20.8
2018-08-09T00:22:43.140Z,20.79
2018-08-09T00:22:47.013Z,20.8
2018-08-09T00:22:51.358Z,20.8
2018-08-09T00:22:55.447Z,20.8
2018-08-09T00:22:59.741Z,20.8
2018-08-09T00:23:03.875Z,20.81
2018-08-09T00:23:08.073Z,20.79
2018-08-09T00:23:12.162Z,20.8
2018-08-09T00:23:16.462Z,20.81
2018-08-09T00:23:20.760Z,20.81
2018-08-09T00:23:24.951Z,20.8
2018-08-09T00:23:29.138Z,20.81
2018-08-09T00:23:33.331Z,20.8
2018-08-09T00:23:37.642Z,20.81
2018-08-09T00:23:42.056Z,20.81
2018-08-09T00:23:46.713Z,20.81
2018-08-09T00:23:51.313Z,20.8
2018-08-09T00:23:55.921Z,20.81
2018-08-09T00:24:00.567Z,20.81
2018-08-09T00:24:04.773Z,20.82
2018-08-09T00:24:08.973Z,20.81
2018-08-09T00:24:13.066Z,20.81
2018-08-09T00:24:17.166Z,20.82
2018-08-09T00:24:21.144Z,20.82
2018-08-09T00:24:25.385Z,20.82
2018-08-09T00:24:29.615Z,20.81
2018-08-09T00:24:33.706Z,20.81
2018-08-09T00:24:37.901Z,20.82
2018-08-09T00:24:42.104Z,20.82
2018-08-09T00:24:46.094Z,20.82
2018-08-09T00:24:50.339Z,20.82
2018-08-09T00:24:54.662Z,20.83
2018-08-09T00:24:58.655Z,20.82
2018-08-09T00:25:02.854Z,20.82
2018-08-09T00:25:07.043Z,20.83
2018-08-09T00:25:11.238Z,20.82
2018-08-09T00:25:15.552Z,20.83
2018-08-09T00:25:19.849Z,20.83
2018-08-09T00:25:24.157Z,20.83
2018-08-09T00:25:28.471Z,20.83
2018-08-09T00:25:32.562Z,20.83
2018-08-09T00:25:36.859Z,20.83
2018-08-09T00:25:41.154Z,20.83
2018-08-09T00:25:45.464Z,20.83
2018-08-09T00:25:49.661Z,20.83
2018-08-09T00:25:53.753Z,20.83
2018-08-09T00:25:58.052Z,20.84
2018-08-09T00:26:02.358Z,20.84
2018-08-09T00:26:06.338Z,20.84
2018-08-09T00:26:10.646Z,20.83
2018-08-09T00:26:14.952Z,20.84
2018-08-09T00:26:19.160Z,20.85
2018-08-09T00:26:23.253Z,20.84
2018-08-09T00:26:27.556Z,20.83
2018-08-09T00:26:31.763Z,20.84
2018-08-09T00:26:35.960Z,20.84
2018-08-09T00:26:39.943Z,20.84
2018-08-09T00:26:44.030Z,20.85
2018-08-09T00:26:48.006Z,20.84
2018-08-09T00:26:52.137Z,20.84
2018-08-09T00:26:56.221Z,20.84
2018-08-09T00:27:00.539Z,20.84
2018-08-09T00:27:04.631Z,20.84
2018-08-09T00:27:08.818Z,20.85
2018-08-09T00:27:13.014Z,20.84
2018-08-09T00:27:17.144Z,20.85
2018-08-09T00:27:21.358Z,20.84
2018-08-09T00:27:25.658Z,20.84
2018-08-09T00:27:29.968Z,20.84
2018-08-09T00:27:34.168Z,20.85
2018-08-09T00:27:38.365Z,20.85
2018-08-09T00:27:42.566Z,20.84
2018-08-09T00:27:46.758Z,20.84
2018-08-09T00:27:50.851Z,20.85
2018-08-09T00:27:55.048Z,20.85
2018-08-09T00:27:59.248Z,20.85
2018-08-09T00:28:03.547Z,20.85
2018-08-09T00:28:07.860Z,20.86
2018-08-09T00:28:12.159Z,20.85
2018-08-09T00:28:16.388Z,20.86
2018-08-09T00:28:20.592Z,20.85
2018-08-09T00:28:24.903Z,20.86
2018-08-09T00:28:28.996Z,20.85
2018-08-09T00:28:33.326Z,20.86
2018-08-09T00:28:37.416Z,20.85
2018-08-09T00:28:41.504Z,20.85
2018-08-09T00:28:45.590Z,20.85
2018-08-09T00:28:49.893Z,20.86
2018-08-09T00:28:54.104Z,20.86
2018-08-09T00:28:58.202Z,20.86
2018-08-09T00:29:02.505Z,20.86
2018-08-09T00:29:06.592Z,20.86
2018-08-09T00:29:10.894Z,20.87
2018-08-09T00:29:15.203Z,20.86
2018-08-09T00:29:25.319Z,20.86
2018-08-09T00:29:29.518Z,20.87
2018-08-09T00:29:33.722Z,20.87
2018-08-09T00:29:38.020Z,20.87
2018-08-09T00:29:42.223Z,20.87
2018-08-09T00:29:46.418Z,20.88
2018-08-09T00:29:50.515Z,20.87
2018-08-09T00:29:54.599Z,20.87
2018-08-09T00:29:58.797Z,20.86
2018-08-09T00:30:02.889Z,20.88
2018-08-09T00:30:07.097Z,20.88
2018-08-09T00:30:11.295Z,20.88
2018-08-09T00:30:15.485Z,20.88
2018-08-09T00:30:19.684Z,20.88
2018-08-09T00:30:23.882Z,20.88
2018-08-09T00:30:28.193Z,20.88
2018-08-09T00:30:32.176Z,20.89
2018-08-09T00:30:36.476Z,20.89
2018-08-09T00:30:40.782Z,20.89
2018-08-09T00:30:44.876Z,20.89
2018-08-09T00:30:48.971Z,20.9
2018-08-09T00:30:53.276Z,20.89
2018-08-09T00:30:57.473Z,20.89
2018-08-09T00:31:01.689Z,20.89
2018-08-09T00:31:05.678Z,20.89
2018-08-09T00:31:09.986Z,20.89
2018-08-09T00:31:14.074Z,20.89
2018-08-09T00:31:18.163Z,20.89
2018-08-09T00:31:22.248Z,20.89
2018-08-09T00:31:26.351Z,20.89
2018-08-09T00:31:30.437Z,20.88
2018-08-09T00:31:34.522Z,20.89
2018-08-09T00:31:38.830Z,20.88
2018-08-09T00:31:42.917Z,20.89
2018-08-09T00:31:47.222Z,20.89
2018-08-09T00:31:51.308Z,20.89
2018-08-09T00:31:55.503Z,20.9
2018-08-09T00:31:59.708Z,20.9
2018-08-09T00:32:04.064Z,20.9
2018-08-09T00:32:08.265Z,20.9
2018-08-09T00:32:12.462Z,20.89
2018-08-09T00:32:16.662Z,20.89
2018-08-09T00:32:20.966Z,20.89
2018-08-09T00:32:25.052Z,20.89
2018-08-09T00:32:29.139Z,20.89
2018-08-09T00:32:33.435Z,20.89
2018-08-09T00:32:37.740Z,20.89
2018-08-09T00:32:42.053Z,20.88
2018-08-09T00:32:46.241Z,20.89
2018-08-09T00:32:50.442Z,20.89
2018-08-09T00:32:54.535Z,20.89
2018-08-09T00:32:58.524Z,20.89
2018-08-09T00:33:02.823Z,20.88
2018-08-09T00:33:07.023Z,20.89
2018-08-09T00:33:11.112Z,20.88
2018-08-09T00:33:15.319Z,20.88
2018-08-09T00:33:19.511Z,20.88
2018-08-09T00:33:23.594Z,20.88
2018-08-09T00:33:27.682Z,20.88
2018-08-09T00:33:31.874Z,20.88
2018-08-09T00:33:36.066Z,20.88
2018-08-09T00:33:40.262Z,20.88
2018-08-09T00:33:44.244Z,20.88
2018-08-09T00:33:48.452Z,20.88
2018-08-09T00:33:52.749Z,20.87
2018-08-09T00:33:56.950Z,20.88
2018-08-09T00:34:01.150Z,20.87
2018-08-09T00:34:05.448Z,20.87
2018-08-09T00:34:09.641Z,20.87
2018-08-09T00:34:13.735Z,20.87
2018-08-09T00:34:17.930Z,20.87
2018-08-09T00:34:22.124Z,20.87
2018-08-09T00:34:26.326Z,20.86
2018-08-09T00:34:30.412Z,20.86
2018-08-09T00:34:34.401Z,20.87
2018-08-09T00:34:38.392Z,20.86
2018-08-09T00:34:42.587Z,20.86
2018-08-09T00:34:46.795Z,20.86
2018-08-09T00:34:51.097Z,20.86
2018-08-09T00:34:55.196Z,20.86
2018-08-09T00:34:59.494Z,20.86
2018-08-09T00:35:03.592Z,20.86
2018-08-09T00:35:07.790Z,20.86
2018-08-09T00:35:12.103Z,20.85
2018-08-09T00:35:16.298Z,20.85
2018-08-09T00:35:20.600Z,20.85
2018-08-09T00:35:24.791Z,20.85
2018-08-09T00:35:29.092Z,20.84
2018-08-09T00:35:33.391Z,20.85
2018-08-09T00:35:37.583Z,20.84
2018-08-09T00:35:41.785Z,20.84
2018-08-09T00:35:45.869Z,20.84
2018-08-09T00:35:49.960Z,20.84
2018-08-09T00:35:54.153Z,20.84
2018-08-09T00:35:58.351Z,20.83
2018-08-09T00:36:02.446Z,20.84
2018-08-09T00:36:06.640Z,20.83
2018-08-09T00:36:10.729Z,20.83
2018-08-09T00:36:15.038Z,20.83
2018-08-09T00:36:19.137Z,20.83
2018-08-09T00:36:23.439Z,20.83
2018-08-09T00:36:27.741Z,20.82
2018-08-09T00:36:32.038Z,20.82
2018-08-09T00:36:36.240Z,20.82
2018-08-09T00:36:40.429Z,20.81
2018-08-09T00:36:44.731Z,20.82
2018-08-09T00:36:49.042Z,20.82
2018-08-09T00:36:53.047Z,20.82
2018-08-09T00:36:57.363Z,20.81
2018-08-09T00:37:01.453Z,20.81
2018-08-09T00:37:05.913Z,20.8
2018-08-09T00:37:10.117Z,20.81
2018-08-09T00:37:14.315Z,20.8
2018-08-09T00:37:18.513Z,20.8
2018-08-09T00:37:22.709Z,20.8
2018-08-09T00:37:26.793Z,20.79
2018-08-09T00:37:31.096Z,20.79
2018-08-09T00:37:35.398Z,20.79
2018-08-09T00:37:39.590Z,20.79
2018-08-09T00:37:43.790Z,20.78
2018-08-09T00:37:47.993Z,20.78
2018-08-09T00:37:52.228Z,20.77
2018-08-09T00:37:56.437Z,20.77
2018-08-09T00:38:00.639Z,20.77
2018-08-09T00:38:04.730Z,20.76
2018-08-09T00:38:08.827Z,20.77
2018-08-09T00:38:12.919Z,20.76
2018-08-09T00:38:17.222Z,20.75
2018-08-09T00:38:21.316Z,20.76
2018-08-09T00:38:25.406Z,20.75
2018-08-09T00:38:29.600Z,20.75
2018-08-09T00:38:33.902Z,20.75
2018-08-09T00:38:37.988Z,20.74
2018-08-09T00:38:42.225Z,20.74
2018-08-09T00:38:46.427Z,20.74
2018-08-09T00:38:50.615Z,20.74
2018-08-09T00:38:54.815Z,20.73
2018-08-09T00:38:59.006Z,20.72
2018-08-09T00:39:03.096Z,20.72
2018-08-09T00:39:07.337Z,20.72
2018-08-09T00:39:11.634Z,20.72
2018-08-09T00:39:15.838Z,20.71
2018-08-09T00:39:20.158Z,20.72
2018-08-09T00:39:24.350Z,20.7
2018-08-09T00:39:28.229Z,20.7
2018-08-09T00:39:32.424Z,20.7
2018-08-09T00:39:36.727Z,20.69
2018-08-09T00:39:40.809Z,20.69
2018-08-09T00:39:44.895Z,20.68
2018-08-09T00:39:49.193Z,20.69
2018-08-09T00:39:53.492Z,20.69
2018-08-09T00:39:57.580Z,20.68
2018-08-09T00:40:01.782Z,20.68
2018-08-09T00:40:05.884Z,20.67
2018-08-09T00:40:10.182Z,20.66
2018-08-09T00:40:14.379Z,20.66
2018-08-09T00:40:18.477Z,20.67
2018-08-09T00:40:22.773Z,20.66
2018-08-09T00:40:26.970Z,20.66
2018-08-09T00:40:31.272Z,20.66
2018-08-09T00:40:35.570Z,20.65
2018-08-09T00:40:39.821Z,20.65
2018-08-09T00:40:44.122Z,20.64
2018-08-09T00:40:48.315Z,20.64
2018-08-09T00:40:52.626Z,20.64
2018-08-09T00:40:56.718Z,20.62
2018-08-09T00:41:00.812Z,20.63
2018-08-09T00:41:04.815Z,20.63
2018-08-09T00:41:08.906Z,20.63
2018-08-09T00:41:13.212Z,20.61
2018-08-09T00:41:17.301Z,20.62
2018-08-09T00:41:21.622Z,20.6
2018-08-09T00:41:25.936Z,20.61
2018-08-09T00:41:30.244Z,20.6
2018-08-09T00:41:34.552Z,20.59
2018-08-09T00:41:38.642Z,20.59
2018-08-09T00:41:43.007Z,20.58
2018-08-09T00:41:47.204Z,20.57
2018-08-09T00:41:51.508Z,20.57
2018-08-09T00:41:55.700Z,20.56
2018-08-09T00:42:00.013Z,20.57
2018-08-09T00:42:04.103Z,20.56
2018-08-09T00:42:08.408Z,20.56
2018-08-09T00:42:12.604Z,20.55
2018-08-09T00:42:16.608Z,20.55
2018-08-09T00:42:20.708Z,20.55
2018-08-09T00:42:24.909Z,20.54
2018-08-09T00:42:29.099Z,20.54
2018-08-09T00:42:33.301Z,20.54
2018-08-09T00:42:37.494Z,20.53
2018-08-09T00:42:41.593Z,20.52
2018-08-09T00:42:45.789Z,20.52
2018-08-09T00:42:50.008Z,20.51
2018-08-09T00:42:54.368Z,20.51
2018-08-09T00:42:58.667Z,20.51
2018-08-09T00:43:02.647Z,20.49
2018-08-09T00:43:06.737Z,20.49
2018-08-09T00:43:10.933Z,20.48
2018-08-09T00:43:15.025Z,20.48
2018-08-09T00:43:19.226Z,20.48
2018-08-09T00:43:23.451Z,20.48
2018-08-09T00:43:27.548Z,20.47
2018-08-09T00:43:31.762Z,20.46
2018-08-09T00:43:36.070Z,20.46
2018-08-09T00:43:40.158Z,20.45
2018-08-09T00:43:44.466Z,20.45
2018-08-09T00:43:48.557Z,20.45
2018-08-09T00:43:52.649Z,20.45
2018-08-09T00:43:56.952Z,20.43
2018-08-09T00:44:01.159Z,20.43
2018-08-09T00:44:05.554Z,20.44
2018-08-09T00:44:09.642Z,20.43
2018-08-09T00:44:13.941Z,20.42
2018-08-09T00:44:18.031Z,20.42
2018-08-09T00:44:22.118Z,20.41
2018-08-09T00:44:26.204Z,20.4
2018-08-09T00:44:30.298Z,20.41
2018-08-09T00:44:34.289Z,20.4
2018-08-09T00:44:38.494Z,20.4
2018-08-09T00:44:42.696Z,20.4
2018-08-09T00:44:46.892Z,20.39
2018-08-09T00:44:50.988Z,20.39
2018-08-09T00:44:55.182Z,20.39
2018-08-09T00:44:59.485Z,20.38
2018-08-09T00:45:03.477Z,20.38
2018-08-09T00:45:07.786Z,20.38
2018-08-09T00:45:11.982Z,20.37
2018-08-09T00:45:16.184Z,20.37
2018-08-09T00:45:20.273Z,20.37
2018-08-09T00:45:24.258Z,20.36
2018-08-09T00:45:28.567Z,20.35
2018-08-09T00:45:32.761Z,20.36
2018-08-09T00:45:37.063Z,20.36
2018-08-09T00:45:41.267Z,20.34
2018-08-09T00:45:45.470Z,20.34
2018-08-09T00:45:49.555Z,20.33
2018-08-09T00:45:53.857Z,20.33
2018-08-09T00:45:57.948Z,20.33
2018-08-09T00:46:01.933Z,20.33
2018-08-09T00:46:05.914Z,20.32
2018-08-09T00:46:10.214Z,20.31
2018-08-09T00:46:14.406Z,20.32
2018-08-09T00:46:18.605Z,20.31
2018-08-09T00:46:22.802Z,20.31
2018-08-09T00:46:26.989Z,20.31
2018-08-09T00:46:31.078Z,20.31
2018-08-09T00:46:35.277Z,20.3
2018-08-09T00:46:39.590Z,20.3
2018-08-09T00:46:43.777Z,20.29
2018-08-09T00:46:47.868Z,20.29
2018-08-09T00:46:52.059Z,20.27
2018-08-09T00:46:56.251Z,20.28
2018-08-09T00:47:00.345Z,20.27
2018-08-09T00:47:04.444Z,20.26
2018-08-09T00:47:08.635Z,20.26
2018-08-09T00:47:12.942Z,20.26
2018-08-09T00:47:17.034Z,20.25
2018-08-09T00:47:21.342Z,20.25
2018-08-09T00:47:25.428Z,20.24
2018-08-09T00:47:29.619Z,20.24
2018-08-09T00:47:33.814Z,20.23
2018-08-09T00:47:38.128Z,20.24
2018-08-09T00:47:42.219Z,20.22
2018-08-09T00:47:46.523Z,20.22
2018-08-09T00:47:50.824Z,20.22
2018-08-09T00:47:55.023Z,20.21
2018-08-09T00:47:59.390Z,20.2
2018-08-09T00:48:03.643Z,20.2
2018-08-09T00:48:07.739Z,20.2
2018-08-09T00:48:12.046Z,20.2
2018-08-09T00:48:16.239Z,20.2
2018-08-09T00:48:20.261Z,20.19
2018-08-09T00:48:24.573Z,20.19
2018-08-09T00:48:28.768Z,20.19
2018-08-09T00:48:32.965Z,20.18
2018-08-09T00:48:37.153Z,20.17
2018-08-09T00:48:41.357Z,20.17
2018-08-09T00:48:45.655Z,20.17
2018-08-09T00:48:49.763Z,20.17
2018-08-09T00:48:53.857Z,20.16
2018-08-09T00:48:57.853Z,20.16
2018-08-09T00:49:02.173Z,20.15
2018-08-09T00:49:06.376Z,20.15
2018-08-09T00:49:10.573Z,20.14
2018-08-09T00:49:14.872Z,20.15
2018-08-09T00:49:19.069Z,20.14
2018-08-09T00:49:23.055Z,20.13
2018-08-09T00:49:27.155Z,20.14
2018-08-09T00:49:31.450Z,20.13
2018-08-09T00:49:35.537Z,20.13
2018-08-09T00:49:39.730Z,20.12
2018-08-09T00:49:44.039Z,20.12
2018-08-09T00:49:48.235Z,20.12
2018-08-09T00:49:52.432Z,20.11
2018-08-09T00:49:56.640Z,20.1
2018-08-09T00:50:00.940Z,20.1
2018-08-09T00:50:05.155Z,20.1
2018-08-09T00:50:09.457Z,20.1
2018-08-09T00:50:13.660Z,20.1
2018-08-09T00:50:17.754Z,20.09
2018-08-09T00:50:21.850Z,20.09
2018-08-09T00:50:25.945Z,20.09
2018-08-09T00:50:30.149Z,20.08
2018-08-09T00:50:34.350Z,20.08
2018-08-09T00:50:38.550Z,20.09
2018-08-09T00:50:42.745Z,20.08
2018-08-09T00:50:47.097Z,20.07
2018-08-09T00:50:51.296Z,20.07
2018-08-09T00:50:55.487Z,20.07
2018-08-09T00:50:59.793Z,20.07
2018-08-09T00:51:04.034Z,20.06
2018-08-09T00:51:08.231Z,20.07
2018-08-09T00:51:12.433Z,20.06
2018-08-09T00:51:16.737Z,20.05
2018-08-09T00:51:20.824Z,20.06
2018-08-09T00:51:24.958Z,20.06
2018-08-09T00:51:28.840Z,20.06
2018-08-09T00:51:33.034Z,20.05
2018-08-09T00:51:37.253Z,20.05
2018-08-09T00:51:41.562Z,20.04
2018-08-09T00:51:45.875Z,20.05
2018-08-09T00:51:50.072Z,20.05
2018-08-09T00:51:54.052Z,20.05
2018-08-09T00:51:58.357Z,20.04
2018-08-09T00:52:02.721Z,20.04
2018-08-09T00:52:06.719Z,20.04
2018-08-09T00:52:10.920Z,20.03
2018-08-09T00:52:15.010Z,20.03
2018-08-09T00:52:19.219Z,20.03
2018-08-09T00:52:23.411Z,20.04
2018-08-09T00:52:27.609Z,20.04
2018-08-09T00:52:31.693Z,20.04
2018-08-09T00:52:36.038Z,20.03
2018-08-09T00:52:40.124Z,20.03
2018-08-09T00:52:44.213Z,20.03
2018-08-09T00:52:48.521Z,20.03
2018-08-09T00:52:52.821Z,20.02
2018-08-09T00:52:57.118Z,20.02
2018-08-09T00:53:01.472Z,20.01
2018-08-09T00:53:05.675Z,20.02
2018-08-09T00:53:09.976Z,20.02
2018-08-09T00:53:14.073Z,20.02
2018-08-09T00:53:18.382Z,20.02
2018-08-09T00:53:22.578Z,20.02
2018-08-09T00:53:26.878Z,20
2018-08-09T00:53:30.977Z,20.01
2018-08-09T00:53:35.176Z,20.01
2018-08-09T00:53:39.477Z,20.01
2018-08-09T00:53:43.471Z,20
2018-08-09T00:53:47.564Z,20
2018-08-09T00:53:51.763Z,20
2018-08-09T00:53:55.968Z,20.01
2018-08-09T00:54:00.159Z,20
2018-08-09T00:54:04.361Z,20.01
2018-08-09T00:54:08.662Z,19.99
2018-08-09T00:54:12.965Z,19.99
2018-08-09T00:54:17.167Z,19.99
2018-08-09T00:54:21.467Z,19.99
2018-08-09T00:54:25.660Z,19.99
2018-08-09T00:54:29.744Z,19.99
2018-08-09T00:54:33.936Z,19.99
2018-08-09T00:54:38.144Z,19.99
2018-08-09T00:54:42.237Z,19.98
2018-08-09T00:54:46.539Z,19.98
2018-08-09T00:54:50.848Z,19.98
2018-08-09T00:54:55.049Z,19.98
2018-08-09T00:54:59.347Z,19.98
2018-08-09T00:55:03.561Z,19.98
2018-08-09T00:55:07.545Z,19.99
2018-08-09T00:55:11.849Z,19.99
2018-08-09T00:55:16.151Z,19.98
2018-08-09T00:55:20.359Z,19.98